Quantico Creek — WDF5735 — position and weather

sailwx.info

Track history (hours):
 
Tides and Currents Weather Stations Pressure Air Temp Water Temp Dewpoint Dewpoint Depression Visibility Wind Speed Wind Dir Waves Ship Positions

Quantico Creek

Owner: Vane Line Bunkering, Inc., Philadelphia, PA. More information available from US FCC via Universal Licensing System and Coast Guard Vessel Documentation Center.

Last reported at 2018-May-14 22:38 UTC. Time now 2018-Jun-22 17:11 UTC.
Position N 27°38' W 082°34'.
Warning: this ship's position is 38 days out of date.

Length 31 m; draft 3.9 m.

Type: Other ship. MMSI: 367466650.

Date/timePositionNaut miles runAvg speedWind from/ knotsBaromVisibWave heightAir tempDewpointWater temp
2018-May-14 22:38N 27°38' W 082°34'0 0.0
2018-May-14 22:14N 27°38' W 082°34'0 0.0
2018-May-14 10:20N 27°38' W 082°34'0 0.0
2018-May-14 00:14N 27°38' W 082°34'0 0.0
2018-May-13 23:56N 27°38' W 082°34'0 0.0
2018-May-13 23:29N 27°38' W 082°34'7 1.1
2018-May-13 17:22N 27°45' W 082°32'5 8.8
2018-May-13 16:45N 27°48' W 082°27'2 9.6
2018-May-13 16:30N 27°51' W 082°27'5 9.1
2018-May-13 16:00N 27°55' W 082°27'1 2.6
2018-May-13 15:28N 27°57' W 082°27'0 0.0
2018-May-13 14:58N 27°57' W 082°27'0 0.0
2018-May-13 14:28N 27°57' W 082°27'0 0.0
2018-May-13 13:58N 27°57' W 082°27'0 0.0
2018-May-13 13:31N 27°57' W 082°27'0 0.0
2018-May-13 13:00N 27°57' W 082°27'0 0.0
2018-May-13 12:31N 27°57' W 082°27'0 0.1
2018-May-13 12:01N 27°57' W 082°27'0 0.7
2018-May-13 11:30N 27°56' W 082°27'3 6.7
2018-May-13 11:00N 27°53' W 082°26'4 7.9
2018-May-13 10:30N 27°49' W 082°27'4 7.6
2018-May-13 10:00N 27°47' W 082°31'4 7.1
2018-May-13 09:30N 27°44' W 082°32'4 7.0
2018-May-13 08:52N 27°41' W 082°35'3 4.6
2018-May-13 08:13N 27°38' W 082°34'0 0.0
2018-May-13 07:41N 27°38' W 082°34'0 0.0
2018-May-13 07:29N 27°38' W 082°34'0 0.0
2018-May-12 18:01N 27°38' W 082°34'0 1.1
2018-May-12 17:52N 27°38' W 082°34'0 0.0
2018-May-12 15:03N 27°38' W 082°34'0 0.0
2018-May-12 15:00N 27°38' W 082°34'0 0.0
2018-May-12 14:24N 27°38' W 082°34'0 0.0
2018-May-12 13:57N 27°38' W 082°34'0 0.0
2018-May-12 13:27N 27°38' W 082°34'0 0.0
2018-May-12 13:00N 27°38' W 082°34'0 0.4
2018-May-12 12:29N 27°38' W 082°34'0 0.0
2018-May-12 11:53N 27°38' W 082°34'0 0.0
2018-May-12 11:29N 27°38' W 082°34'0 0.0
2018-May-12 10:59N 27°38' W 082°34'0 0.0
2018-May-12 10:23N 27°38' W 082°34'0 0.0
2018-May-12 09:59N 27°38' W 082°34'0 0.0
2018-May-12 09:29N 27°38' W 082°34'0 0.0
2018-May-12 08:59N 27°38' W 082°34'0 0.0
2018-May-12 08:29N 27°38' W 082°34'0 0.0
2018-May-12 07:59N 27°38' W 082°34'0 0.0
2018-May-12 07:29N 27°38' W 082°34'0 0.0
2018-May-12 06:59N 27°38' W 082°34'0 0.0
2018-May-12 06:29N 27°38' W 082°34'0 0.0
2018-May-12 05:59N 27°38' W 082°34'0 0.0
2018-May-12 05:29N 27°38' W 082°34'0 0.0
2018-May-12 03:56N 27°38' W 082°34'0 0.0
2018-May-12 03:26N 27°38' W 082°34'0 0.0
2018-May-12 02:32N 27°38' W 082°34'0 0.0
2018-May-12 02:26N 27°38' W 082°34'0 0.0
2018-May-12 01:38N 27°38' W 082°34'0 0.0
2018-May-12 01:23N 27°38' W 082°34'0 0.0
2018-May-12 00:56N 27°38' W 082°34'0 0.0
2018-May-12 00:26N 27°38' W 082°34'0 0.0
2018-May-11 23:50N 27°38' W 082°34'0 0.0
2018-May-11 23:14N 27°38' W 082°34'0 0.0
2018-May-11 22:59N 27°38' W 082°34'0 0.0
2018-May-11 22:26N 27°38' W 082°34'0 0.0
2018-May-11 21:59N 27°38' W 082°34'0 0.0
2018-May-11 21:26N 27°38' W 082°34'0 0.0
2018-May-11 20:50N 27°38' W 082°34'0 0.0
2018-May-11 20:26N 27°38' W 082°34'0 0.0
2018-May-11 19:44N 27°38' W 082°34'0 0.0
2018-May-11 16:44N 27°38' W 082°34'0 0.0
2018-May-11 16:29N 27°38' W 082°34'0 0.0
2018-May-11 15:59N 27°38' W 082°34'0 0.0
2018-May-11 15:26N 27°38' W 082°34'0 0.0
2018-May-11 14:56N 27°38' W 082°34'0 0.0
2018-May-11 14:26N 27°38' W 082°34'0 0.0
2018-May-11 13:38N 27°38' W 082°34'0 0.0
2018-May-11 13:20N 27°38' W 082°34'0 0.0
2018-May-11 12:59N 27°38' W 082°34'0 0.0
2018-May-11 12:11N 27°38' W 082°34'0 0.0
2018-May-11 11:59N 27°38' W 082°34'0 0.0
2018-May-11 11:22N 27°38' W 082°34'0 0.0
2018-May-11 10:58N 27°38' W 082°34'0 0.0
2018-May-11 10:28N 27°38' W 082°34'0 0.0
2018-May-11 09:46N 27°38' W 082°34'0 0.0
2018-May-11 09:22N 27°38' W 082°34'0 0.0
2018-May-11 08:52N 27°38' W 082°34'0 0.0
2018-May-11 08:28N 27°38' W 082°34'0 0.0
2018-May-11 07:52N 27°38' W 082°34'0 0.0
2018-May-11 06:52N 27°38' W 082°34'0 0.0
2018-May-11 06:28N 27°38' W 082°34'0 0.0
2018-May-11 05:04N 27°38' W 082°34'0 0.0
2018-May-11 04:52N 27°38' W 082°34'0 0.0
2018-May-11 04:28N 27°38' W 082°34'0 0.0
2018-May-11 02:28N 27°38' W 082°34'0 0.0
2018-May-11 01:55N 27°38' W 082°34'0 0.0
2018-May-11 01:28N 27°38' W 082°34'0 0.0
2018-May-11 00:58N 27°38' W 082°34'0 0.0
2018-May-11 00:25N 27°38' W 082°34'0 0.0
2018-May-10 23:46N 27°38' W 082°34'0 0.0
2018-May-10 23:22N 27°38' W 082°34'0 0.0
2018-May-10 22:58N 27°38' W 082°34'0 0.0
2018-May-10 22:28N 27°38' W 082°34'0 0.0
2018-May-10 21:52N 27°38' W 082°34'0 0.0
2018-May-10 21:28N 27°38' W 082°34'0 0.0
2018-May-10 19:46N 27°38' W 082°34'0 0.0
2018-May-10 18:34N 27°38' W 082°34'0 0.0
2018-May-10 18:28N 27°38' W 082°34'0 0.0
2018-May-10 12:46N 27°38' W 082°34'0 0.0
2018-May-10 12:28N 27°38' W 082°34'0 0.0
2018-May-10 11:58N 27°38' W 082°34'0 0.0
2018-May-10 11:25N 27°38' W 082°34'0 0.0
2018-May-10 10:58N 27°38' W 082°34'0 0.0
2018-May-10 10:28N 27°38' W 082°34'0 0.0
2018-May-10 09:46N 27°38' W 082°34'0 0.0
2018-May-10 09:28N 27°38' W 082°34'0 0.0
2018-May-10 08:55N 27°38' W 082°34'0 0.0
2018-May-10 08:28N 27°38' W 082°34'0 0.0
2018-May-10 07:58N 27°38' W 082°34'0 0.0
2018-May-10 07:28N 27°38' W 082°34'0 0.0
2018-May-10 06:58N 27°38' W 082°34'0 0.0
2018-May-10 06:22N 27°38' W 082°34'0 0.0
2018-May-10 05:58N 27°38' W 082°34'0 0.0
2018-May-10 05:28N 27°38' W 082°34'0 0.0
2018-May-10 04:58N 27°38' W 082°34'0 0.0
2018-May-10 04:16N 27°38' W 082°34'0 0.0
2018-May-10 03:58N 27°38' W 082°34'0 0.0
2018-May-10 03:22N 27°38' W 082°34'0 0.0
2018-May-10 02:40N 27°38' W 082°34'0 0.0
2018-May-10 02:22N 27°38' W 082°34'0 0.0
2018-May-10 01:46N 27°38' W 082°34'0 0.0
2018-May-10 00:25N 27°38' W 082°34'0 0.0
2018-May-09 23:58N 27°38' W 082°34'0 0.0
2018-May-09 23:28N 27°38' W 082°34'0 0.0
2018-May-09 22:58N 27°38' W 082°34'0 0.0
2018-May-09 22:28N 27°38' W 082°34'0 0.0
2018-May-09 21:58N 27°38' W 082°34'0 0.0
2018-May-09 20:52N 27°38' W 082°34'7 3.6
2018-May-09 18:52N 27°45' W 082°32'4 7.6
2018-May-09 18:20N 27°48' W 082°29'3 8.3
2018-May-09 18:00N 27°50' W 082°27'4 8.8
2018-May-09 17:31N 27°54' W 082°26'2 3.9
2018-May-09 17:00N 27°56' W 082°27'0 0.7
2018-May-09 16:30N 27°57' W 082°27'0 0.0
2018-May-09 16:00N 27°57' W 082°27'0 0.0
2018-May-09 15:30N 27°57' W 082°27'0 0.0
2018-May-09 15:00N 27°57' W 082°27'0 0.0
2018-May-09 14:30N 27°57' W 082°27'0 0.0
2018-May-09 14:00N 27°57' W 082°27'0 0.0
2018-May-09 13:30N 27°57' W 082°27'0 0.0
2018-May-09 13:00N 27°57' W 082°27'0 0.3
2018-May-09 12:30N 27°57' W 082°27'0 0.4
2018-May-09 12:00N 27°57' W 082°27'1 1.5
2018-May-09 11:30N 27°56' W 082°27'0 0.9
2018-May-09 11:00N 27°56' W 082°27'1 3.0
2018-May-09 10:31N 27°54' W 082°26'1 2.5
2018-May-09 10:00N 27°55' W 082°25'1 1.7
2018-May-09 09:30N 27°55' W 082°26'3 6.7
2018-May-09 09:00N 27°51' W 082°27'3 6.8
2018-May-09 08:30N 27°48' W 082°28'3 6.9
2018-May-09 08:00N 27°46' W 082°31'4 7.2
2018-May-09 07:30N 27°43' W 082°33'4 6.9
2018-May-09 06:59N 27°40' W 082°36'3 5.7
2018-May-09 06:30N 27°38' W 082°34'0 0.2
2018-May-09 05:47N 27°38' W 082°34'0 0.0
2018-May-09 05:17N 27°38' W 082°34'0 0.0
2018-May-09 04:59N 27°38' W 082°34'0 0.0
2018-May-09 04:17N 27°38' W 082°34'0 0.0
2018-May-09 02:23N 27°38' W 082°34'0 0.0
2018-May-09 01:53N 27°38' W 082°34'0 0.0
2018-May-09 01:23N 27°38' W 082°34'0 0.0
2018-May-09 00:59N 27°38' W 082°34'0 0.0
2018-May-09 00:29N 27°38' W 082°34'0 0.0
2018-May-08 23:59N 27°38' W 082°34'0 0.0
2018-May-08 23:23N 27°38' W 082°34'0 0.0
2018-May-08 22:59N 27°38' W 082°34'0 0.0
2018-May-08 22:29N 27°38' W 082°34'0 0.0
2018-May-08 21:53N 27°38' W 082°34'0 0.0
2018-May-08 21:23N 27°38' W 082°34'0 0.0
2018-May-08 20:59N 27°38' W 082°34'0 0.0
2018-May-08 20:29N 27°38' W 082°34'0 0.0
2018-May-08 19:35N 27°38' W 082°34'0 0.0
2018-May-08 19:29N 27°38' W 082°34'0 0.0
2018-May-08 18:53N 27°38' W 082°34'0 0.0
2018-May-08 18:23N 27°38' W 082°34'0 0.0
2018-May-08 17:53N 27°38' W 082°34'0 0.0
2018-May-08 17:05N 27°38' W 082°34'0 0.0
2018-May-08 16:41N 27°38' W 082°34'0 0.0
2018-May-08 16:29N 27°38' W 082°34'0 0.0
2018-May-08 12:46N 27°38' W 082°34'0 0.3
2018-May-08 12:25N 27°38' W 082°34'0 0.0
2018-May-08 11:43N 27°38' W 082°34'0 0.0
2018-May-08 11:19N 27°38' W 082°34'0 0.0
2018-May-08 10:46N 27°38' W 082°34'0 0.0
2018-May-08 10:25N 27°38' W 082°34'0 0.0
2018-May-08 09:58N 27°38' W 082°34'0 0.0
2018-May-08 09:25N 27°38' W 082°34'0 0.0
2018-May-08 08:49N 27°38' W 082°34'0 0.0
2018-May-08 08:28N 27°38' W 082°34'0 0.0
2018-May-08 07:37N 27°38' W 082°34'0 0.0
2018-May-08 07:28N 27°38' W 082°34'0 0.0
2018-May-08 06:55N 27°38' W 082°34'0 0.0
2018-May-08 06:28N 27°38' W 082°34'0 0.0
2018-May-08 05:58N 27°38' W 082°34'0 0.0
2018-May-08 05:28N 27°38' W 082°34'0 0.0
2018-May-08 04:55N 27°38' W 082°34'0 0.0
2018-May-08 04:28N 27°38' W 082°34'0 0.0
2018-May-08 03:55N 27°38' W 082°34'0 0.0
2018-May-08 03:19N 27°38' W 082°34'0 0.0
2018-May-08 02:13N 27°38' W 082°34'0 0.0
2018-May-07 20:52N 27°38' W 082°34'0 0.0
2018-May-07 20:30N 27°38' W 082°34'0 0.0
2018-May-07 19:56N 27°38' W 082°34'0 0.0
2018-May-07 19:30N 27°38' W 082°34'7 4.5
2018-May-07 17:59N 27°44' W 082°32'5 7.4
2018-May-07 17:16N 27°48' W 082°28'2 7.7
2018-May-07 17:00N 27°50' W 082°27'4 8.3
2018-May-07 16:29N 27°54' W 082°26'2 5.2
2018-May-07 16:00N 27°57' W 082°27'0 0.4
2018-May-07 15:30N 27°57' W 082°27'0 0.0
2018-May-07 15:00N 27°57' W 082°27'0 0.0
2018-May-07 14:30N 27°57' W 082°27'0 0.0
2018-May-07 14:00N 27°57' W 082°27'0 0.0
2018-May-07 13:30N 27°57' W 082°27'0 0.0
2018-May-07 13:00N 27°57' W 082°27'0 0.1
2018-May-07 12:30N 27°57' W 082°27'0 0.1
2018-May-07 11:57N 27°57' W 082°27'0 0.0
2018-May-07 11:30N 27°57' W 082°27'2 4.1
2018-May-07 11:00N 27°55' W 082°26'1 1.7
2018-May-07 10:30N 27°55' W 082°26'0 0.0
2018-May-07 09:58N 27°55' W 082°26'0 0.0
2018-May-07 09:28N 27°55' W 082°26'0 0.0
2018-May-07 08:58N 27°55' W 082°26'0 0.0
2018-May-07 08:28N 27°55' W 082°26'0 0.0
2018-May-07 07:58N 27°55' W 082°26'0 0.0
2018-May-07 07:28N 27°55' W 082°26'0 0.0
2018-May-07 06:58N 27°55' W 082°26'0 0.0
2018-May-07 06:28N 27°55' W 082°26'0 0.0
2018-May-07 05:55N 27°55' W 082°26'0 0.0
2018-May-07 05:28N 27°55' W 082°26'0 0.0
2018-May-07 04:58N 27°55' W 082°26'0 0.0
2018-May-07 04:28N 27°55' W 082°26'0 0.0
2018-May-07 03:58N 27°55' W 082°26'0 0.0
2018-May-07 03:28N 27°55' W 082°26'0 0.0
2018-May-07 02:58N 27°55' W 082°26'0 0.0
2018-May-07 02:28N 27°55' W 082°26'0 0.0
2018-May-07 01:58N 27°55' W 082°26'0 0.0
2018-May-07 01:28N 27°55' W 082°26'0 0.0
2018-May-07 00:58N 27°55' W 082°26'0 0.0
2018-May-07 00:28N 27°55' W 082°26'0 0.0
2018-May-06 23:58N 27°55' W 082°26'0 0.0
2018-May-06 23:28N 27°55' W 082°26'0 0.0
2018-May-06 22:58N 27°55' W 082°26'0 0.0
2018-May-06 22:28N 27°55' W 082°26'0 0.0
2018-May-06 21:58N 27°55' W 082°26'0 0.0
2018-May-06 21:28N 27°55' W 082°26'0 0.0
2018-May-06 20:58N 27°55' W 082°26'0 0.0
2018-May-06 20:28N 27°55' W 082°26'0 0.0
2018-May-06 19:58N 27°55' W 082°26'0 0.0
2018-May-06 19:30N 27°55' W 082°26'1 2.0
2018-May-06 19:00N 27°55' W 082°27'1 2.9
2018-May-06 18:30N 27°57' W 082°27'0 0.1
2018-May-06 18:00N 27°57' W 082°27'0 0.0
2018-May-06 17:28N 27°57' W 082°27'0 0.0
2018-May-06 17:00N 27°57' W 082°27'0 0.0
2018-May-06 16:31N 27°57' W 082°27'0 0.0
2018-May-06 16:00N 27°57' W 082°27'0 0.0
2018-May-06 15:30N 27°57' W 082°27'0 0.0
2018-May-06 15:00N 27°57' W 082°27'0 0.3
2018-May-06 14:30N 27°57' W 082°27'0 0.1
2018-May-06 13:58N 27°57' W 082°27'0 0.0
2018-May-06 13:28N 27°57' W 082°27'0 0.0
2018-May-06 12:58N 27°57' W 082°27'0 0.0
2018-May-06 12:28N 27°57' W 082°27'0 0.0
2018-May-06 11:58N 27°57' W 082°27'0 0.0
2018-May-06 11:28N 27°57' W 082°27'0 0.1
2018-May-06 11:00N 27°57' W 082°27'1 2.4
2018-May-06 10:29N 27°56' W 082°27'1 3.0
2018-May-06 10:00N 27°55' W 082°26'0 0.7
2018-May-06 09:30N 27°55' W 082°26'3 6.7
2018-May-06 09:00N 27°52' W 082°27'4 7.3
2018-May-06 08:30N 27°48' W 082°28'4 7.1
2018-May-06 08:00N 27°46' W 082°31'4 7.7
2018-May-06 07:30N 27°43' W 082°33'4 7.5
2018-May-06 07:00N 27°40' W 082°36'3 5.4
2018-May-06 06:29N 27°38' W 082°34'0 0.0
2018-May-06 01:55N 27°38' W 082°34'0 0.0
2018-May-06 01:25N 27°38' W 082°34'0 0.0
2018-May-06 00:43N 27°38' W 082°34'0 0.0
2018-May-06 00:13N 27°38' W 082°34'0 0.0
2018-May-05 23:55N 27°38' W 082°34'0 0.0
2018-May-05 21:13N 27°38' W 082°34'0 0.0
2018-May-05 19:55N 27°38' W 082°34'0 0.0
2018-May-05 11:53N 27°38' W 082°34'0 0.2
2018-May-05 11:30N 27°38' W 082°34'0 0.0
2018-May-05 09:17N 27°38' W 082°34'0 0.0
2018-May-05 08:47N 27°38' W 082°34'0 0.0
2018-May-05 08:29N 27°38' W 082°34'0 0.0
2018-May-05 07:59N 27°38' W 082°34'0 0.0
2018-May-05 00:05N 27°38' W 082°34'0 0.0
2018-May-04 23:41N 27°38' W 082°34'0 0.0
2018-May-04 22:53N 27°38' W 082°34'  
Track history (hours):
 
Tides and Currents Weather Stations Pressure Air Temp Water Temp Dewpoint Dewpoint Depression Visibility Wind Speed Wind Dir Waves Ship Positions

Quantico Creek

Owner: Vane Line Bunkering, Inc., Philadelphia, PA. More information available from US FCC via Universal Licensing System and Coast Guard Vessel Documentation Center.

Last reported at 2018-May-14 22:38 UTC. Time now 2018-Jun-22 17:11 UTC.
Position N 27°38' W 082°34'.
Warning: this ship's position is 38 days out of date.

Length 31 m; draft 3.9 m.

Type: Other ship. MMSI: 367466650.

Date/timePositionNaut miles runAvg speedWind from/ knotsBaromVisibWave heightAir tempDewpointWater temp
2018-May-14 22:38N 27°38' W 082°34'0 0.0
2018-May-14 22:14N 27°38' W 082°34'0 0.0
2018-May-14 10:20N 27°38' W 082°34'0 0.0
2018-May-14 00:14N 27°38' W 082°34'0 0.0
2018-May-13 23:56N 27°38' W 082°34'0 0.0
2018-May-13 23:29N 27°38' W 082°34'7 1.1
2018-May-13 17:22N 27°45' W 082°32'5 8.8
2018-May-13 16:45N 27°48' W 082°27'2 9.6
2018-May-13 16:30N 27°51' W 082°27'5 9.1
2018-May-13 16:00N 27°55' W 082°27'1 2.6
2018-May-13 15:28N 27°57' W 082°27'0 0.0
2018-May-13 14:58N 27°57' W 082°27'0 0.0
2018-May-13 14:28N 27°57' W 082°27'0 0.0
2018-May-13 13:58N 27°57' W 082°27'0 0.0
2018-May-13 13:31N 27°57' W 082°27'0 0.0
2018-May-13 13:00N 27°57' W 082°27'0 0.0
2018-May-13 12:31N 27°57' W 082°27'0 0.1
2018-May-13 12:01N 27°57' W 082°27'0 0.7
2018-May-13 11:30N 27°56' W 082°27'3 6.7
2018-May-13 11:00N 27°53' W 082°26'4 7.9
2018-May-13 10:30N 27°49' W 082°27'4 7.6
2018-May-13 10:00N 27°47' W 082°31'4 7.1
2018-May-13 09:30N 27°44' W 082°32'4 7.0
2018-May-13 08:52N 27°41' W 082°35'3 4.6
2018-May-13 08:13N 27°38' W 082°34'0 0.0
2018-May-13 07:41N 27°38' W 082°34'0 0.0
2018-May-13 07:29N 27°38' W 082°34'0 0.0
2018-May-12 18:01N 27°38' W 082°34'0 1.1
2018-May-12 17:52N 27°38' W 082°34'0 0.0
2018-May-12 15:03N 27°38' W 082°34'0 0.0
2018-May-12 15:00N 27°38' W 082°34'0 0.0
2018-May-12 14:24N 27°38' W 082°34'0 0.0
2018-May-12 13:57N 27°38' W 082°34'0 0.0
2018-May-12 13:27N 27°38' W 082°34'0 0.0
2018-May-12 13:00N 27°38' W 082°34'0 0.4
2018-May-12 12:29N 27°38' W 082°34'0 0.0
2018-May-12 11:53N 27°38' W 082°34'0 0.0
2018-May-12 11:29N 27°38' W 082°34'0 0.0
2018-May-12 10:59N 27°38' W 082°34'0 0.0
2018-May-12 10:23N 27°38' W 082°34'0 0.0
2018-May-12 09:59N 27°38' W 082°34'0 0.0
2018-May-12 09:29N 27°38' W 082°34'0 0.0
2018-May-12 08:59N 27°38' W 082°34'0 0.0
2018-May-12 08:29N 27°38' W 082°34'0 0.0
2018-May-12 07:59N 27°38' W 082°34'0 0.0
2018-May-12 07:29N 27°38' W 082°34'0 0.0
2018-May-12 06:59N 27°38' W 082°34'0 0.0
2018-May-12 06:29N 27°38' W 082°34'0 0.0
2018-May-12 05:59N 27°38' W 082°34'0 0.0
2018-May-12 05:29N 27°38' W 082°34'0 0.0
2018-May-12 03:56N 27°38' W 082°34'0 0.0
2018-May-12 03:26N 27°38' W 082°34'0 0.0
2018-May-12 02:32N 27°38' W 082°34'0 0.0
2018-May-12 02:26N 27°38' W 082°34'0 0.0
2018-May-12 01:38N 27°38' W 082°34'0 0.0
2018-May-12 01:23N 27°38' W 082°34'0 0.0
2018-May-12 00:56N 27°38' W 082°34'0 0.0
2018-May-12 00:26N 27°38' W 082°34'0 0.0
2018-May-11 23:50N 27°38' W 082°34'0 0.0
2018-May-11 23:14N 27°38' W 082°34'0 0.0
2018-May-11 22:59N 27°38' W 082°34'0 0.0
2018-May-11 22:26N 27°38' W 082°34'0 0.0
2018-May-11 21:59N 27°38' W 082°34'0 0.0
2018-May-11 21:26N 27°38' W 082°34'0 0.0
2018-May-11 20:50N 27°38' W 082°34'0 0.0
2018-May-11 20:26N 27°38' W 082°34'0 0.0
2018-May-11 19:44N 27°38' W 082°34'0 0.0
2018-May-11 16:44N 27°38' W 082°34'0 0.0
2018-May-11 16:29N 27°38' W 082°34'0 0.0
2018-May-11 15:59N 27°38' W 082°34'0 0.0
2018-May-11 15:26N 27°38' W 082°34'0 0.0
2018-May-11 14:56N 27°38' W 082°34'0 0.0
2018-May-11 14:26N 27°38' W 082°34'0 0.0
2018-May-11 13:38N 27°38' W 082°34'0 0.0
2018-May-11 13:20N 27°38' W 082°34'0 0.0
2018-May-11 12:59N 27°38' W 082°34'0 0.0
2018-May-11 12:11N 27°38' W 082°34'0 0.0
2018-May-11 11:59N 27°38' W 082°34'0 0.0
2018-May-11 11:22N 27°38' W 082°34'0 0.0
2018-May-11 10:58N 27°38' W 082°34'0 0.0
2018-May-11 10:28N 27°38' W 082°34'0 0.0
2018-May-11 09:46N 27°38' W 082°34'0 0.0
2018-May-11 09:22N 27°38' W 082°34'0 0.0
2018-May-11 08:52N 27°38' W 082°34'0 0.0
2018-May-11 08:28N 27°38' W 082°34'0 0.0
2018-May-11 07:52N 27°38' W 082°34'0 0.0
2018-May-11 06:52N 27°38' W 082°34'0 0.0
2018-May-11 06:28N 27°38' W 082°34'0 0.0
2018-May-11 05:04N 27°38' W 082°34'0 0.0
2018-May-11 04:52N 27°38' W 082°34'0 0.0
2018-May-11 04:28N 27°38' W 082°34'0 0.0
2018-May-11 02:28N 27°38' W 082°34'0 0.0
2018-May-11 01:55N 27°38' W 082°34'0 0.0
2018-May-11 01:28N 27°38' W 082°34'0 0.0
2018-May-11 00:58N 27°38' W 082°34'0 0.0
2018-May-11 00:25N 27°38' W 082°34'0 0.0
2018-May-10 23:46N 27°38' W 082°34'0 0.0
2018-May-10 23:22N 27°38' W 082°34'0 0.0
2018-May-10 22:58N 27°38' W 082°34'0 0.0
2018-May-10 22:28N 27°38' W 082°34'0 0.0
2018-May-10 21:52N 27°38' W 082°34'0 0.0
2018-May-10 21:28N 27°38' W 082°34'0 0.0
2018-May-10 19:46N 27°38' W 082°34'0 0.0
2018-May-10 18:34N 27°38' W 082°34'0 0.0
2018-May-10 18:28N 27°38' W 082°34'0 0.0
2018-May-10 12:46N 27°38' W 082°34'0 0.0
2018-May-10 12:28N 27°38' W 082°34'0 0.0
2018-May-10 11:58N 27°38' W 082°34'0 0.0
2018-May-10 11:25N 27°38' W 082°34'0 0.0
2018-May-10 10:58N 27°38' W 082°34'0 0.0
2018-May-10 10:28N 27°38' W 082°34'0 0.0
2018-May-10 09:46N 27°38' W 082°34'0 0.0
2018-May-10 09:28N 27°38' W 082°34'0 0.0
2018-May-10 08:55N 27°38' W 082°34'0 0.0
2018-May-10 08:28N 27°38' W 082°34'0 0.0
2018-May-10 07:58N 27°38' W 082°34'0 0.0
2018-May-10 07:28N 27°38' W 082°34'0 0.0
2018-May-10 06:58N 27°38' W 082°34'0 0.0
2018-May-10 06:22N 27°38' W 082°34'0 0.0
2018-May-10 05:58N 27°38' W 082°34'0 0.0
2018-May-10 05:28N 27°38' W 082°34'0 0.0
2018-May-10 04:58N 27°38' W 082°34'0 0.0
2018-May-10 04:16N 27°38' W 082°34'0 0.0
2018-May-10 03:58N 27°38' W 082°34'0 0.0
2018-May-10 03:22N 27°38' W 082°34'0 0.0
2018-May-10 02:40N 27°38' W 082°34'0 0.0
2018-May-10 02:22N 27°38' W 082°34'0 0.0
2018-May-10 01:46N 27°38' W 082°34'0 0.0
2018-May-10 00:25N 27°38' W 082°34'0 0.0
2018-May-09 23:58N 27°38' W 082°34'0 0.0
2018-May-09 23:28N 27°38' W 082°34'0 0.0
2018-May-09 22:58N 27°38' W 082°34'0 0.0
2018-May-09 22:28N 27°38' W 082°34'0 0.0
2018-May-09 21:58N 27°38' W 082°34'0 0.0
2018-May-09 20:52N 27°38' W 082°34'7 3.6
2018-May-09 18:52N 27°45' W 082°32'4 7.6
2018-May-09 18:20N 27°48' W 082°29'3 8.3
2018-May-09 18:00N 27°50' W 082°27'4 8.8
2018-May-09 17:31N 27°54' W 082°26'2 3.9
2018-May-09 17:00N 27°56' W 082°27'0 0.7
2018-May-09 16:30N 27°57' W 082°27'0 0.0
2018-May-09 16:00N 27°57' W 082°27'0 0.0
2018-May-09 15:30N 27°57' W 082°27'0 0.0
2018-May-09 15:00N 27°57' W 082°27'0 0.0
2018-May-09 14:30N 27°57' W 082°27'0 0.0
2018-May-09 14:00N 27°57' W 082°27'0 0.0
2018-May-09 13:30N 27°57' W 082°27'0 0.0
2018-May-09 13:00N 27°57' W 082°27'0 0.3
2018-May-09 12:30N 27°57' W 082°27'0 0.4
2018-May-09 12:00N 27°57' W 082°27'1 1.5
2018-May-09 11:30N 27°56' W 082°27'0 0.9
2018-May-09 11:00N 27°56' W 082°27'1 3.0
2018-May-09 10:31N 27°54' W 082°26'1 2.5
2018-May-09 10:00N 27°55' W 082°25'1 1.7
2018-May-09 09:30N 27°55' W 082°26'3 6.7
2018-May-09 09:00N 27°51' W 082°27'3 6.8
2018-May-09 08:30N 27°48' W 082°28'3 6.9
2018-May-09 08:00N 27°46' W 082°31'4 7.2
2018-May-09 07:30N 27°43' W 082°33'4 6.9
2018-May-09 06:59N 27°40' W 082°36'3 5.7
2018-May-09 06:30N 27°38' W 082°34'0 0.2
2018-May-09 05:47N 27°38' W 082°34'0 0.0
2018-May-09 05:17N 27°38' W 082°34'0 0.0
2018-May-09 04:59N 27°38' W 082°34'0 0.0
2018-May-09 04:17N 27°38' W 082°34'0 0.0
2018-May-09 02:23N 27°38' W 082°34'0 0.0
2018-May-09 01:53N 27°38' W 082°34'0 0.0
2018-May-09 01:23N 27°38' W 082°34'0 0.0
2018-May-09 00:59N 27°38' W 082°34'0 0.0
2018-May-09 00:29N 27°38' W 082°34'0 0.0
2018-May-08 23:59N 27°38' W 082°34'0 0.0
2018-May-08 23:23N 27°38' W 082°34'0 0.0
2018-May-08 22:59N 27°38' W 082°34'0 0.0
2018-May-08 22:29N 27°38' W 082°34'0 0.0
2018-May-08 21:53N 27°38' W 082°34'0 0.0
2018-May-08 21:23N 27°38' W 082°34'0 0.0
2018-May-08 20:59N 27°38' W 082°34'0 0.0
2018-May-08 20:29N 27°38' W 082°34'0 0.0
2018-May-08 19:35N 27°38' W 082°34'0 0.0
2018-May-08 19:29N 27°38' W 082°34'0 0.0
2018-May-08 18:53N 27°38' W 082°34'0 0.0
2018-May-08 18:23N 27°38' W 082°34'0 0.0
2018-May-08 17:53N 27°38' W 082°34'0 0.0
2018-May-08 17:05N 27°38' W 082°34'0 0.0
2018-May-08 16:41N 27°38' W 082°34'0 0.0
2018-May-08 16:29N 27°38' W 082°34'0 0.0
2018-May-08 12:46N 27°38' W 082°34'0 0.3
2018-May-08 12:25N 27°38' W 082°34'0 0.0
2018-May-08 11:43N 27°38' W 082°34'0 0.0
2018-May-08 11:19N 27°38' W 082°34'0 0.0
2018-May-08 10:46N 27°38' W 082°34'0 0.0
2018-May-08 10:25N 27°38' W 082°34'0 0.0
2018-May-08 09:58N 27°38' W 082°34'0 0.0
2018-May-08 09:25N 27°38' W 082°34'0 0.0
2018-May-08 08:49N 27°38' W 082°34'0 0.0
2018-May-08 08:28N 27°38' W 082°34'0 0.0
2018-May-08 07:37N 27°38' W 082°34'0 0.0
2018-May-08 07:28N 27°38' W 082°34'0 0.0
2018-May-08 06:55N 27°38' W 082°34'0 0.0
2018-May-08 06:28N 27°38' W 082°34'0 0.0
2018-May-08 05:58N 27°38' W 082°34'0 0.0
2018-May-08 05:28N 27°38' W 082°34'0 0.0
2018-May-08 04:55N 27°38' W 082°34'0 0.0
2018-May-08 04:28N 27°38' W 082°34'0 0.0
2018-May-08 03:55N 27°38' W 082°34'0 0.0
2018-May-08 03:19N 27°38' W 082°34'0 0.0
2018-May-08 02:13N 27°38' W 082°34'0 0.0
2018-May-07 20:52N 27°38' W 082°34'0 0.0
2018-May-07 20:30N 27°38' W 082°34'0 0.0
2018-May-07 19:56N 27°38' W 082°34'0 0.0
2018-May-07 19:30N 27°38' W 082°34'7 4.5
2018-May-07 17:59N 27°44' W 082°32'5 7.4
2018-May-07 17:16N 27°48' W 082°28'2 7.7
2018-May-07 17:00N 27°50' W 082°27'4 8.3
2018-May-07 16:29N 27°54' W 082°26'2 5.2
2018-May-07 16:00N 27°57' W 082°27'0 0.4
2018-May-07 15:30N 27°57' W 082°27'0 0.0
2018-May-07 15:00N 27°57' W 082°27'0 0.0
2018-May-07 14:30N 27°57' W 082°27'0 0.0
2018-May-07 14:00N 27°57' W 082°27'0 0.0
2018-May-07 13:30N 27°57' W 082°27'0 0.0
2018-May-07 13:00N 27°57' W 082°27'0 0.1
2018-May-07 12:30N 27°57' W 082°27'0 0.1
2018-May-07 11:57N 27°57' W 082°27'0 0.0
2018-May-07 11:30N 27°57' W 082°27'2 4.1
2018-May-07 11:00N 27°55' W 082°26'1 1.7
2018-May-07 10:30N 27°55' W 082°26'0 0.0
2018-May-07 09:58N 27°55' W 082°26'0 0.0
2018-May-07 09:28N 27°55' W 082°26'0 0.0
2018-May-07 08:58N 27°55' W 082°26'0 0.0
2018-May-07 08:28N 27°55' W 082°26'0 0.0
2018-May-07 07:58N 27°55' W 082°26'0 0.0
2018-May-07 07:28N 27°55' W 082°26'0 0.0
2018-May-07 06:58N 27°55' W 082°26'0 0.0
2018-May-07 06:28N 27°55' W 082°26'0 0.0
2018-May-07 05:55N 27°55' W 082°26'0 0.0
2018-May-07 05:28N 27°55' W 082°26'0 0.0
2018-May-07 04:58N 27°55' W 082°26'0 0.0
2018-May-07 04:28N 27°55' W 082°26'0 0.0
2018-May-07 03:58N 27°55' W 082°26'0 0.0
2018-May-07 03:28N 27°55' W 082°26'0 0.0
2018-May-07 02:58N 27°55' W 082°26'0 0.0
2018-May-07 02:28N 27°55' W 082°26'0 0.0
2018-May-07 01:58N 27°55' W 082°26'0 0.0
2018-May-07 01:28N 27°55' W 082°26'0 0.0
2018-May-07 00:58N 27°55' W 082°26'0 0.0
2018-May-07 00:28N 27°55' W 082°26'0 0.0
2018-May-06 23:58N 27°55' W 082°26'0 0.0
2018-May-06 23:28N 27°55' W 082°26'0 0.0
2018-May-06 22:58N 27°55' W 082°26'0 0.0
2018-May-06 22:28N 27°55' W 082°26'0 0.0
2018-May-06 21:58N 27°55' W 082°26'0 0.0
2018-May-06 21:28N 27°55' W 082°26'0 0.0
2018-May-06 20:58N 27°55' W 082°26'0 0.0
2018-May-06 20:28N 27°55' W 082°26'0 0.0
2018-May-06 19:58N 27°55' W 082°26'0 0.0
2018-May-06 19:30N 27°55' W 082°26'1 2.0
2018-May-06 19:00N 27°55' W 082°27'1 2.9
2018-May-06 18:30N 27°57' W 082°27'0 0.1
2018-May-06 18:00N 27°57' W 082°27'0 0.0
2018-May-06 17:28N 27°57' W 082°27'0 0.0
2018-May-06 17:00N 27°57' W 082°27'0 0.0
2018-May-06 16:31N 27°57' W 082°27'0 0.0
2018-May-06 16:00N 27°57' W 082°27'0 0.0
2018-May-06 15:30N 27°57' W 082°27'0 0.0
2018-May-06 15:00N 27°57' W 082°27'0 0.3
2018-May-06 14:30N 27°57' W 082°27'0 0.1
2018-May-06 13:58N 27°57' W 082°27'0 0.0
2018-May-06 13:28N 27°57' W 082°27'0 0.0
2018-May-06 12:58N 27°57' W 082°27'0 0.0
2018-May-06 12:28N 27°57' W 082°27'0 0.0
2018-May-06 11:58N 27°57' W 082°27'0 0.0
2018-May-06 11:28N 27°57' W 082°27'0 0.1
2018-May-06 11:00N 27°57' W 082°27'1 2.4
2018-May-06 10:29N 27°56' W 082°27'1 3.0
2018-May-06 10:00N 27°55' W 082°26'0 0.7
2018-May-06 09:30N 27°55' W 082°26'3 6.7
2018-May-06 09:00N 27°52' W 082°27'4 7.3
2018-May-06 08:30N 27°48' W 082°28'4 7.1
2018-May-06 08:00N 27°46' W 082°31'4 7.7
2018-May-06 07:30N 27°43' W 082°33'4 7.5
2018-May-06 07:00N 27°40' W 082°36'3 5.4
2018-May-06 06:29N 27°38' W 082°34'0 0.0
2018-May-06 01:55N 27°38' W 082°34'0 0.0
2018-May-06 01:25N 27°38' W 082°34'0 0.0
2018-May-06 00:43N 27°38' W 082°34'0 0.0
2018-May-06 00:13N 27°38' W 082°34'0 0.0
2018-May-05 23:55N 27°38' W 082°34'0 0.0
2018-May-05 21:13N 27°38' W 082°34'0 0.0
2018-May-05 19:55N 27°38' W 082°34'0 0.0
2018-May-05 11:53N 27°38' W 082°34'0 0.2
2018-May-05 11:30N 27°38' W 082°34'0 0.0
2018-May-05 09:17N 27°38' W 082°34'0 0.0
2018-May-05 08:47N 27°38' W 082°34'0 0.0
2018-May-05 08:29N 27°38' W 082°34'0 0.0
2018-May-05 07:59N 27°38' W 082°34'0 0.0
2018-May-05 00:05N 27°38' W 082°34'0 0.0
2018-May-04 23:41N 27°38' W 082°34'0 0.0
2018-May-04 22:53N 27°38' W 082°34'  

Dump ship's entire track history